Time;durP1;ratioP1;P1;durP2;ratioP2;P2;SDS_P1;SDS_P2;PMS_P1;PMS_P2;Temp;Humidity;BMP_temperature;BMP_pressure;BME280_temperature;BME280_humidity;BME280_pressure;Samples;Min_cycle;Max_cycle;Signal;HPM_P1;HPM_P2
2022/02/18 00:01:41;;;;;;;9.40;2.70;;;;;;;21.47;35.27;100827.94;5036969;28;20041;-63
2022/02/18 00:04:07;;;;;;;11.45;2.50;;;;;;;21.43;35.53;100832.81;5037530;28;20055;-62
2022/02/18 00:06:32;;;;;;;6.20;2.90;;;;;;;21.43;35.64;100832.81;5032047;28;20044;-62
2022/02/18 00:08:59;;;;;;;9.40;2.60;;;;;;;21.41;35.57;100834.81;5037433;28;20122;-63
2022/02/18 00:11:24;;;;;;;8.35;2.80;;;;;;;21.33;35.72;100838.41;5035100;28;20210;-62
2022/02/18 00:13:50;;;;;;;10.13;3.35;;;;;;;21.31;35.66;100836.97;5039741;28;20792;-62
2022/02/18 00:16:15;;;;;;;10.35;2.55;;;;;;;21.29;35.88;100841.63;5038370;28;20032;-62
2022/02/18 00:18:41;;;;;;;10.80;2.50;;;;;;;21.21;35.92;100828.50;5036059;28;20047;-62
2022/02/18 00:21:06;;;;;;;8.32;3.03;;;;;;;21.25;35.86;100835.06;5039239;28;20053;-62
2022/02/18 00:23:32;;;;;;;9.88;3.10;;;;;;;21.19;35.94;100835.81;5036586;28;20498;-62
2022/02/18 00:25:58;;;;;;;8.00;3.22;;;;;;;21.15;35.83;100835.34;5037575;28;20048;-62
2022/02/18 00:28:24;;;;;;;8.15;2.90;;;;;;;21.15;35.78;100837.16;5038709;28;20048;-62
2022/02/18 00:30:50;;;;;;;6.72;2.53;;;;;;;21.14;36.03;100841.66;5038817;28;20045;-62
2022/02/18 00:33:15;;;;;;;9.00;3.08;;;;;;;21.10;35.99;100825.31;5037985;28;20068;-62
2022/02/18 00:35:41;;;;;;;8.88;2.83;;;;;;;21.07;36.08;100823.06;5038764;28;20032;-63
2022/02/18 00:38:07;;;;;;;6.45;2.15;;;;;;;21.02;35.90;100821.97;5035490;28;20041;-62
2022/02/18 00:40:33;;;;;;;6.13;2.67;;;;;;;21.02;36.10;100829.94;5038857;28;20129;-62
2022/02/18 00:42:59;;;;;;;5.78;2.53;;;;;;;20.96;35.98;100820.06;5035848;28;20132;-62
2022/02/18 00:45:25;;;;;;;7.32;2.45;;;;;;;20.99;36.16;100827.63;5036942;28;20540;-62
2022/02/18 00:47:51;;;;;;;7.93;2.38;;;;;;;20.95;36.08;100829.84;5037237;28;20143;-62
2022/02/18 00:50:18;;;;;;;9.77;2.55;;;;;;;20.93;36.17;100838.97;5036346;28;20041;-62
2022/02/18 00:52:44;;;;;;;6.18;2.25;;;;;;;20.93;36.31;100850.38;5039314;28;20059;-62
2022/02/18 00:55:11;;;;;;;6.78;2.20;;;;;;;20.87;36.37;100847.66;5036198;28;20136;-62
2022/02/18 00:57:38;;;;;;;7.03;2.85;;;;;;;20.79;36.35;100843.28;5038666;28;20036;-62
2022/02/18 01:00:06;;;;;;;6.70;2.88;;;;;;;20.80;36.36;100847.56;5036361;28;20056;-63
2022/02/18 01:02:31;;;;;;;7.93;2.47;;;;;;;20.81;36.31;100854.50;5032467;28;20037;-62
2022/02/18 01:04:57;;;;;;;6.68;2.67;;;;;;;20.81;36.36;100854.50;5037423;28;20025;-63
2022/02/18 01:07:25;;;;;;;7.78;2.80;;;;;;;20.78;36.38;100860.16;5032644;28;20040;-62
2022/02/18 01:09:52;;;;;;;8.25;2.28;;;;;;;20.74;36.52;100858.91;5033223;28;20227;-62
2022/02/18 01:12:21;;;;;;;6.60;2.30;;;;;;;20.75;36.57;100860.53;5033571;28;20040;-62
2022/02/18 01:14:48;;;;;;;7.57;2.87;;;;;;;20.72;36.37;100864.38;5034016;28;20140;-62
2022/02/18 01:17:14;;;;;;;6.95;2.05;;;;;;;20.71;36.49;100862.75;5034240;28;20068;-62
2022/02/18 01:19:40;;;;;;;9.88;2.42;;;;;;;20.66;36.59;100861.66;5034864;28;20049;-62
2022/02/18 01:22:06;;;;;;;6.15;2.30;;;;;;;20.62;36.66;100855.91;5039164;28;20106;-62
2022/02/18 01:24:31;;;;;;;7.70;2.08;;;;;;;20.63;36.57;100856.72;5041288;28;20032;-63
2022/02/18 01:26:57;;;;;;;8.13;2.55;;;;;;;20.56;36.73;100842.59;5038340;28;20044;-62
2022/02/18 01:29:23;;;;;;;7.18;2.47;;;;;;;20.62;36.69;100847.97;5038006;28;20099;-62
2022/02/18 01:31:48;;;;;;;7.57;2.30;;;;;;;20.56;36.67;100846.06;5035213;28;20033;-62
2022/02/18 01:34:14;;;;;;;4.85;2.25;;;;;;;20.58;36.71;100851.16;5038822;28;20612;-62
2022/02/18 01:36:40;;;;;;;6.55;2.50;;;;;;;20.43;36.79;100836.13;5035113;28;20048;-62
2022/02/18 01:39:06;;;;;;;7.80;2.35;;;;;;;20.56;36.77;100850.53;5043305;28;20534;-62
2022/02/18 01:41:32;;;;;;;7.88;2.30;;;;;;;20.52;36.72;100850.09;5036178;28;20167;-62
2022/02/18 01:44:00;;;;;;;7.47;2.75;;;;;;;20.51;36.75;100843.97;5063301;28;20121;-62
2022/02/18 01:46:26;;;;;;;6.03;2.35;;;;;;;20.45;36.86;100828.81;5038727;28;20482;-62
2022/02/18 01:48:54;;;;;;;4.75;2.05;;;;;;;20.40;36.95;100820.59;5036339;28;20071;-62
2022/02/18 01:51:24;;;;;;;5.07;2.10;;;;;;;20.41;36.83;100822.25;5034578;28;20482;-62
2022/02/18 01:53:51;;;;;;;6.50;2.10;;;;;;;20.39;37.06;100824.25;5064349;28;20426;-62
2022/02/18 01:56:21;;;;;;;9.15;2.40;;;;;;;20.40;36.80;100812.66;5038270;28;20064;-62
2022/02/18 01:58:47;;;;;;;7.70;2.33;;;;;;;20.42;36.86;100821.25;5033610;28;20529;-62
2022/02/18 02:01:13;;;;;;;6.53;2.92;;;;;;;20.43;36.81;100812.31;5037383;28;20025;-62
2022/02/18 02:03:40;;;;;;;6.68;2.50;;;;;;;20.40;36.77;100809.19;5035755;28;21055;-62
2022/02/18 02:06:06;;;;;;;7.15;2.10;;;;;;;20.36;36.90;100814.03;5037831;28;21133;-62
2022/02/18 02:08:35;;;;;;;6.40;2.08;;;;;;;20.33;36.90;100810.94;5036423;28;20044;-62
2022/02/18 02:11:01;;;;;;;8.38;2.25;;;;;;;20.31;36.96;100811.13;5036633;28;20132;-62
2022/02/18 02:13:38;;;;;;;7.22;2.47;;;;;;;20.30;36.91;100804.19;5037572;28;20075;-62
2022/02/18 02:16:14;;;;;;;7.20;1.83;;;;;;;20.27;36.99;100790.50;5042641;28;20051;-62
2022/02/18 02:18:41;;;;;;;6.05;2.03;;;;;;;20.22;36.99;100778.66;5037067;28;20402;-62
2022/02/18 02:21:09;;;;;;;7.38;2.17;;;;;;;20.22;37.00;100793.69;5034107;28;20378;-62
2022/02/18 02:23:40;;;;;;;7.78;2.33;;;;;;;20.21;37.08;100786.78;5055728;28;20102;-62
2022/02/18 02:26:11;;;;;;;6.10;2.40;;;;;;;20.19;37.11;100783.50;5031608;28;20837;-62
2022/02/18 02:28:37;;;;;;;3.53;1.75;;;;;;;20.20;37.16;100774.56;5016534;28;20038;-62
2022/02/18 02:31:04;;;;;;;8.63;2.35;;;;;;;20.19;37.07;100773.75;5035430;28;20047;-62
2022/02/18 02:33:31;;;;;;;4.18;2.10;;;;;;;20.09;37.05;100754.69;5037442;28;20045;-62
2022/02/18 02:35:58;;;;;;;6.57;1.90;;;;;;;20.16;36.98;100763.53;5050603;28;20825;-62
2022/02/18 02:38:23;;;;;;;6.90;2.47;;;;;;;20.18;37.00;100753.59;5043948;28;20037;-62
2022/02/18 02:40:50;;;;;;;6.35;1.92;;;;;;;20.17;37.02;100767.81;5034747;28;20084;-62
2022/02/18 02:43:16;;;;;;;6.80;1.83;;;;;;;20.13;37.15;100761.25;5031307;28;20811;-62
2022/02/18 02:45:44;;;;;;;7.72;2.40;;;;;;;20.13;37.06;100758.63;5039141;28;20040;-62
2022/02/18 02:48:10;;;;;;;5.45;2.08;;;;;;;20.06;37.06;100749.75;5037483;28;20029;-62
2022/02/18 02:50:57;;;;;;;4.88;2.05;;;;;;;20.04;37.28;100751.78;5041687;28;20099;-62
2022/02/18 02:53:25;;;;;;;6.10;1.92;;;;;;;20.07;37.22;100742.66;5037870;28;20103;-61
2022/02/18 02:55:50;;;;;;;6.32;2.05;;;;;;;19.99;37.17;100738.28;5036756;28;20124;-62
2022/02/18 02:58:17;;;;;;;6.45;2.53;;;;;;;20.04;37.21;100735.09;5040656;28;20236;-62
2022/02/18 03:00:44;;;;;;;4.93;1.73;;;;;;;20.01;37.22;100730.16;5037996;28;20033;-62
2022/02/18 03:03:19;;;;;;;5.00;1.73;;;;;;;19.98;37.46;100731.38;5042749;28;20037;-62
2022/02/18 03:05:56;;;;;;;5.82;2.28;;;;;;;19.98;37.09;100723.44;5032903;28;20525;-62
2022/02/18 03:08:22;;;;;;;8.23;2.13;;;;;;;19.97;37.35;100716.50;5052338;28;20056;-62
2022/02/18 03:11:14;;;;;;;3.35;1.80;;;;;;;19.96;37.20;100716.69;5035676;28;20131;-61
2022/02/18 03:13:35;;;;;;;3.95;1.80;;;;;;;20.05;37.15;100708.47;5040334;28;20088;-62
2022/02/18 03:16:03;;;;;;;5.43;2.08;;;;;;;20.03;37.19;100697.25;5037380;28;20513;-61
2022/02/18 03:18:28;;;;;;;4.18;1.70;;;;;;;19.99;37.15;100696.00;5040491;28;20373;-62
2022/02/18 03:20:56;;;;;;;5.30;2.25;;;;;;;19.97;37.40;100697.19;5055022;28;20070;-62
2022/02/18 03:23:21;;;;;;;5.03;1.65;;;;;;;19.97;37.30;100691.91;5048048;28;20485;-62
2022/02/18 03:25:47;;;;;;;5.18;1.70;;;;;;;19.95;37.22;100696.56;5041960;28;20033;-62
2022/02/18 03:28:13;;;;;;;7.25;1.83;;;;;;;19.90;37.24;100682.03;5036992;28;20037;-62
2022/02/18 03:30:39;;;;;;;2.55;1.42;;;;;;;19.93;37.24;100678.25;5042683;28;20041;-61
2022/02/18 03:33:05;;;;;;;6.85;2.20;;;;;;;19.96;37.28;100685.78;5037337;28;20498;-62
2022/02/18 03:35:31;;;;;;;2.80;1.58;;;;;;;19.90;37.33;100668.84;5036843;28;20037;-62
2022/02/18 03:38:00;;;;;;;4.15;1.80;;;;;;;19.90;37.33;100671.47;5038944;28;20076;-61
2022/02/18 03:40:32;;;;;;;4.15;1.80;;;;;;;19.91;37.42;100675.75;5037921;28;20037;-62
2022/02/18 03:42:59;;;;;;;4.50;1.70;;;;;;;19.92;37.34;100671.28;5043347;28;20032;-62
2022/02/18 03:45:30;;;;;;;5.03;1.80;;;;;;;19.90;37.28;100655.63;5064522;28;20035;-61
2022/02/18 03:47:57;;;;;;;3.95;1.90;;;;;;;19.88;37.18;100651.53;5039038;28;20032;-61
2022/02/18 03:50:23;;;;;;;5.15;1.58;;;;;;;19.86;37.21;100653.53;5036117;28;20335;-62
2022/02/18 03:52:53;;;;;;;5.50;1.70;;;;;;;19.87;37.32;100650.72;5036604;28;20041;-62
2022/02/18 03:55:20;;;;;;;3.88;1.58;;;;;;;19.91;37.18;100640.59;5037799;28;20048;-61
2022/02/18 03:57:50;;;;;;;6.68;2.10;;;;;;;19.87;37.32;100645.41;5036197;28;20543;-62
2022/02/18 04:00:17;;;;;;;6.38;1.83;;;;;;;19.84;37.45;100644.97;5040791;28;20047;-62
2022/02/18 04:02:46;;;;;;;4.03;1.70;;;;;;;19.88;37.26;100638.31;5032463;28;20064;-62
2022/02/18 04:05:31;;;;;;;4.40;1.70;;;;;;;19.85;37.38;100633.41;5041672;28;20118;-61
2022/02/18 04:08:07;;;;;;;3.85;1.33;;;;;;;19.87;37.30;100629.56;5034594;28;20573;-62
2022/02/18 04:10:32;;;;;;;4.80;2.00;;;;;;;19.84;37.36;100623.84;5036644;28;20087;-61
2022/02/18 04:13:03;;;;;;;4.65;1.75;;;;;;;19.82;37.40;100624.03;5034644;28;20094;-62
2022/02/18 04:15:29;;;;;;;4.35;1.52;;;;;;;19.80;37.60;100619.94;5037531;28;20097;-61
2022/02/18 04:17:55;;;;;;;3.70;1.42;;;;;;;19.80;37.54;100609.38;5037807;28;20321;-62
2022/02/18 04:20:29;;;;;;;2.58;1.30;;;;;;;19.80;37.47;100601.44;5038234;28;20694;-62
2022/02/18 04:22:58;;;;;;;3.55;1.70;;;;;;;19.83;37.49;100599.22;5038048;28;20057;-61
2022/02/18 04:25:28;;;;;;;4.18;1.80;;;;;;;19.77;37.58;100594.69;5034549;28;20470;-61
2022/02/18 04:27:55;;;;;;;4.93;1.50;;;;;;;19.79;37.48;100592.69;5041156;28;20040;-61
2022/02/18 04:30:21;;;;;;;3.75;1.45;;;;;;;19.79;37.39;100592.69;5036149;28;20044;-61
2022/02/18 04:32:47;;;;;;;3.83;1.60;;;;;;;19.77;37.46;100588.59;5041864;28;20071;-61
2022/02/18 04:35:13;;;;;;;3.90;1.48;;;;;;;19.76;37.43;100569.28;5034867;28;20094;-61
2022/02/18 04:37:39;;;;;;;4.13;2.10;;;;;;;19.73;37.65;100571.44;5034782;28;20052;-61
2022/02/18 04:40:07;;;;;;;4.47;1.60;;;;;;;19.74;37.50;100568.63;5038345;28;20037;-61
2022/02/18 04:42:32;;;;;;;4.80;1.65;;;;;;;19.76;37.32;100558.72;5034070;28;20047;-61
2022/02/18 04:44:58;;;;;;;3.47;1.65;;;;;;;19.73;37.46;100564.34;5033962;28;20033;-61
2022/02/18 04:47:25;;;;;;;4.60;1.40;;;;;;;19.75;37.43;100561.50;5031921;28;20040;-61
2022/02/18 04:49:51;;;;;;;3.17;1.50;;;;;;;19.72;37.59;100567.19;5038329;28;20617;-61
2022/02/18 04:52:17;;;;;;;5.45;1.98;;;;;;;19.72;37.52;100564.53;5032679;28;20044;-61
2022/02/18 04:54:43;;;;;;;4.53;1.73;;;;;;;19.72;37.50;100570.63;5036505;28;20731;-62
2022/02/18 04:57:10;;;;;;;5.18;1.77;;;;;;;19.72;37.46;100568.00;5043609;28;20033;-62
2022/02/18 04:59:35;;;;;;;5.13;1.67;;;;;;;19.69;37.47;100563.09;5036803;28;20076;-62
2022/02/18 05:02:01;;;;;;;2.67;1.20;;;;;;;19.67;37.59;100549.25;5038742;28;20052;-61
2022/02/18 05:04:26;;;;;;;4.22;2.22;;;;;;;19.69;37.59;100549.88;5034430;28;20112;-61
2022/02/18 05:06:52;;;;;;;7.38;1.92;;;;;;;19.69;37.48;100555.16;5037026;28;20055;-61
2022/02/18 05:09:17;;;;;;;6.88;1.65;;;;;;;19.63;37.57;100547.16;5034938;28;20597;-62
2022/02/18 05:11:43;;;;;;;4.63;1.73;;;;;;;19.63;37.50;100539.25;5036609;28;20362;-61
2022/02/18 05:14:08;;;;;;;3.97;1.52;;;;;;;19.64;37.65;100532.97;5033884;28;20509;-62
2022/02/18 05:16:34;;;;;;;2.97;1.50;;;;;;;19.63;37.70;100524.22;5033077;28;20120;-62
2022/02/18 05:19:04;;;;;;;4.15;1.73;;;;;;;19.60;37.50;100514.03;5037606;28;20131;-61
2022/02/18 05:21:29;;;;;;;3.67;1.75;;;;;;;19.60;37.51;100509.56;5033827;28;20049;-62
2022/02/18 05:23:55;;;;;;;5.45;1.50;;;;;;;19.64;37.55;100503.91;5036228;28;20050;-61
2022/02/18 05:26:21;;;;;;;5.80;1.95;;;;;;;19.61;37.49;100483.97;5031778;28;20045;-62
2022/02/18 05:28:46;;;;;;;3.95;1.45;;;;;;;19.55;37.76;100488.16;5040695;28;20051;-61
2022/02/18 05:31:12;;;;;;;2.88;1.58;;;;;;;19.59;37.60;100484.16;5035108;28;20048;-61
2022/02/18 05:33:37;;;;;;;8.85;1.63;;;;;;;19.67;37.34;100472.63;5035384;28;20041;-61
2022/02/18 05:36:04;;;;;;;4.50;1.52;;;;;;;19.62;37.69;100469.75;5054185;28;20121;-61
2022/02/18 05:38:31;;;;;;;2.72;1.50;;;;;;;19.59;37.66;100465.66;5032855;28;20048;-61
2022/02/18 05:40:58;;;;;;;5.63;1.75;;;;;;;19.57;37.58;100466.84;5038870;28;20536;-61
2022/02/18 05:43:24;;;;;;;4.22;1.80;;;;;;;19.53;37.77;100462.91;5031486;28;20048;-61
2022/02/18 05:45:49;;;;;;;4.90;2.00;;;;;;;19.54;37.67;100452.19;5044279;28;20033;-61
2022/02/18 05:48:15;;;;;;;2.72;1.42;;;;;;;19.55;37.48;100445.88;5034752;28;20044;-61
2022/02/18 05:50:40;;;;;;;4.40;1.65;;;;;;;19.55;37.68;100432.69;5034674;28;20774;-62
2022/02/18 05:53:06;;;;;;;5.10;1.88;;;;;;;19.57;37.69;100428.06;5037609;28;20067;-62
2022/02/18 05:55:31;;;;;;;4.70;1.85;;;;;;;19.58;37.82;100427.06;5029672;28;20030;-61
2022/02/18 05:57:57;;;;;;;3.50;1.30;;;;;;;19.57;37.72;100419.31;5037864;28;20041;-61
2022/02/18 06:00:22;;;;;;;5.78;1.60;;;;;;;19.55;37.85;100400.19;5031385;28;20041;-62
2022/02/18 06:02:48;;;;;;;3.45;1.42;;;;;;;19.52;37.83;100384.69;5037309;28;20041;-62
2022/02/18 06:05:13;;;;;;;4.35;1.58;;;;;;;19.52;37.84;100377.56;5035379;28;20041;-62
2022/02/18 06:07:42;;;;;;;3.58;1.48;;;;;;;19.55;37.75;100369.28;5067503;28;20048;-62
2022/02/18 06:10:08;;;;;;;5.20;1.60;;;;;;;19.51;37.92;100346.88;5038511;28;20041;-61
2022/02/18 06:12:33;;;;;;;4.22;1.50;;;;;;;19.61;37.77;100338.69;5029976;28;20828;-62
2022/02/18 06:14:59;;;;;;;3.58;1.48;;;;;;;19.90;37.43;100320.00;5041365;28;20033;-62
2022/02/18 06:17:24;;;;;;;3.42;1.48;;;;;;;20.08;37.22;100297.56;5036361;28;20699;-62
2022/02/18 06:19:50;;;;;;;4.22;1.85;;;;;;;20.28;37.14;100269.41;5037206;28;20044;-61
2022/02/18 06:22:21;;;;;;;2.55;1.35;;;;;;;20.56;36.87;100242.09;5032973;28;20128;-62
2022/02/18 06:24:46;;;;;;;5.22;1.65;;;;;;;20.80;36.38;100212.44;5034277;28;20029;-62
2022/02/18 06:27:12;;;;;;;5.13;1.90;;;;;;;21.00;36.18;100196.59;5034292;28;20494;-62
2022/02/18 06:29:37;;;;;;;4.30;1.17;;;;;;;21.08;35.88;100193.78;5036154;28;20056;-62
2022/02/18 06:32:07;;;;;;;2.50;1.50;;;;;;;21.14;35.98;100182.34;5039832;28;20048;-62
2022/02/18 06:34:32;;;;;;;4.25;1.70;;;;;;;21.06;36.09;100198.47;5032197;28;20037;-61
2022/02/18 06:36:58;;;;;;;3.90;1.35;;;;;;;20.93;36.22;100188.66;5037252;28;20083;-61
2022/02/18 06:39:24;;;;;;;3.72;1.60;;;;;;;20.77;36.48;100175.81;5032961;28;20045;-62
2022/02/18 06:41:50;;;;;;;4.22;1.30;;;;;;;20.79;36.58;100184.38;5035408;28;20045;-61
2022/02/18 06:44:16;;;;;;;4.57;1.70;;;;;;;20.84;36.52;100181.94;5035074;28;20017;-62
2022/02/18 06:46:42;;;;;;;5.50;1.33;;;;;;;20.88;36.55;100183.16;5032955;28;20045;-62
2022/02/18 06:49:08;;;;;;;4.10;1.63;;;;;;;20.90;36.10;100182.97;5030949;28;20049;-61
2022/02/18 06:51:33;;;;;;;4.20;1.38;;;;;;;20.91;36.49;100172.19;5032927;28;20072;-62
2022/02/18 06:53:59;;;;;;;4.47;1.45;;;;;;;20.96;36.44;100167.06;5040758;28;20053;-62
2022/02/18 06:56:25;;;;;;;6.43;1.92;;;;;;;21.18;36.24;100157.09;5028420;28;20064;-62
2022/02/18 06:58:52;;;;;;;3.05;2.00;;;;;;;21.34;35.89;100151.41;5037302;28;20123;-62
2022/02/18 07:01:18;;;;;;;2.70;1.40;;;;;;;21.49;35.89;100145.91;5037173;28;20111;-61
2022/02/18 07:03:44;;;;;;;5.22;2.00;;;;;;;21.61;35.75;100127.53;5034345;28;20041;-62
2022/02/18 07:06:09;;;;;;;8.57;2.40;;;;;;;21.60;35.67;100117.97;5035587;28;20079;-62
2022/02/18 07:08:35;;;;;;;3.85;1.67;;;;;;;21.54;35.90;100116.94;5033830;28;20037;-62
2022/02/18 07:11:00;;;;;;;2.63;1.23;;;;;;;21.46;35.74;100103.13;5034381;28;20446;-61
2022/02/18 07:13:26;;;;;;;6.13;1.80;;;;;;;21.37;35.95;100097.25;5031060;28;20037;-61
2022/02/18 07:15:52;;;;;;;6.60;1.90;;;;;;;21.35;36.04;100092.13;5039156;28;20572;-62
2022/02/18 07:18:17;;;;;;;4.95;1.95;;;;;;;21.29;36.11;100077.06;5035929;28;20040;-62
2022/02/18 07:20:45;;;;;;;2.58;1.50;;;;;;;21.36;35.95;100066.47;5034187;28;20044;-61
2022/02/18 07:23:11;;;;;;;4.00;1.58;;;;;;;21.32;36.19;100066.06;5038523;28;20172;-62
2022/02/18 07:25:37;;;;;;;4.80;1.65;;;;;;;21.37;36.02;100060.97;5030135;28;20082;-61
2022/02/18 07:28:02;;;;;;;4.18;1.55;;;;;;;21.32;35.99;100039.59;5034781;28;20137;-62
2022/02/18 07:30:28;;;;;;;3.45;1.77;;;;;;;21.32;35.86;100015.75;5030949;28;20079;-61
2022/02/18 07:32:54;;;;;;;7.25;1.67;;;;;;;21.34;36.04;100013.69;5041393;28;20044;-62
2022/02/18 07:35:24;;;;;;;5.95;1.92;;;;;;;21.33;36.04;100008.63;5040613;28;20461;-61
2022/02/18 07:37:49;;;;;;;4.78;2.05;;;;;;;21.31;35.87;99998.22;5035593;28;20045;-62
2022/02/18 07:40:16;;;;;;;4.30;1.45;;;;;;;21.36;35.88;99987.00;5041249;28;20043;-62
2022/02/18 07:42:43;;;;;;;4.47;1.50;;;;;;;21.28;36.07;99964.22;5035884;28;20049;-62
2022/02/18 07:45:11;;;;;;;6.13;2.30;;;;;;;21.32;35.94;99943.44;5037479;28;20033;-62
2022/02/18 07:47:36;;;;;;;5.10;2.08;;;;;;;21.37;36.21;99933.03;5035152;28;20032;-61
2022/02/18 07:50:04;;;;;;;5.90;1.80;;;;;;;21.43;36.05;99921.59;5037801;28;20043;-61
2022/02/18 07:52:30;;;;;;;7.45;2.05;;;;;;;21.38;35.95;99900.25;5039625;28;20083;-62
2022/02/18 07:54:56;;;;;;;3.25;1.60;;;;;;;21.44;35.82;99885.31;5039477;28;20167;-62
2022/02/18 07:57:23;;;;;;;4.72;1.77;;;;;;;21.46;35.83;99867.38;5049855;28;20715;-62
2022/02/18 07:59:49;;;;;;;4.45;1.90;;;;;;;21.45;35.90;99868.41;5034641;28;20049;-62
2022/02/18 08:02:15;;;;;;;4.18;1.70;;;;;;;21.44;35.95;99858.84;5040020;28;20092;-61
2022/02/18 08:04:41;;;;;;;3.60;1.67;;;;;;;21.39;35.94;99838.31;5032228;28;20040;-62
2022/02/18 08:07:06;;;;;;;5.60;1.92;;;;;;;21.37;35.99;99835.06;5036012;28;20072;-62
2022/02/18 08:09:33;;;;;;;4.03;1.63;;;;;;;21.35;35.94;99824.66;5034176;28;20545;-61
2022/02/18 08:12:00;;;;;;;3.90;1.60;;;;;;;21.33;35.95;99821.41;5035503;28;20045;-62
2022/02/18 08:14:25;;;;;;;4.55;1.65;;;;;;;21.26;36.25;99814.53;5034832;28;20044;-62
2022/02/18 08:16:51;;;;;;;7.38;1.95;;;;;;;21.20;36.25;99800.31;5035810;28;20041;-62
2022/02/18 08:19:20;;;;;;;3.90;1.83;;;;;;;21.15;36.46;99783.41;5038847;28;20028;-62
2022/02/18 08:21:47;;;;;;;5.43;1.73;;;;;;;21.13;36.44;99757.16;5036055;28;20090;-62
2022/02/18 08:24:17;;;;;;;5.40;2.17;;;;;;;21.19;36.35;99742.28;5037022;28;20459;-62
2022/02/18 08:26:48;;;;;;;6.57;2.75;;;;;;;21.22;36.47;99737.34;5034194;28;20041;-62
2022/02/18 08:29:17;;;;;;;5.07;1.85;;;;;;;21.33;36.29;99719.97;5041697;28;20049;-62
2022/02/18 08:31:43;;;;;;;8.93;2.42;;;;;;;21.32;36.19;99710.41;5036689;28;20411;-63
2022/02/18 08:34:09;;;;;;;6.00;2.05;;;;;;;21.28;36.34;99704.75;5039178;28;20052;-62
2022/02/18 08:36:35;;;;;;;8.85;2.15;;;;;;;21.34;36.12;99689.81;5032568;28;20045;-62
2022/02/18 08:39:05;;;;;;;9.02;2.40;;;;;;;21.35;36.32;99679.00;5035222;28;20095;-62
2022/02/18 08:41:32;;;;;;;6.78;2.50;;;;;;;21.41;35.87;99669.41;5035047;28;20041;-62
2022/02/18 08:43:58;;;;;;;6.90;2.20;;;;;;;21.37;36.08;99649.69;5031170;28;20052;-62
2022/02/18 08:46:28;;;;;;;6.00;2.33;;;;;;;21.34;36.21;99645.59;5040284;28;20033;-62
2022/02/18 08:48:53;;;;;;;;;;;;;;;21.34;36.20;99644.81;5034219;28;20058;-62
2022/02/18 08:51:20;;;;;;;3.35;1.98;;;;;;;21.29;35.98;99632.22;5041885;28;20450;-62
2022/02/18 08:53:45;;;;;;;7.50;2.30;;;;;;;21.23;36.26;99632.25;5034726;28;20029;-62
2022/02/18 08:56:11;;;;;;;7.80;2.50;;;;;;;21.16;36.33;99619.06;5046487;28;20044;-61
2022/02/18 08:58:37;;;;;;;8.52;2.65;;;;;;;21.18;36.46;99589.72;5025814;28;21737;-60
2022/02/18 09:01:03;;;;;;;10.43;2.45;;;;;;;21.09;36.63;99568.03;5016497;28;20090;-62
2022/02/18 09:03:29;;;;;;;6.05;2.10;;;;;;;21.07;36.76;99578.03;5035270;28;20052;-62
2022/02/18 09:05:55;;;;;;;5.03;2.40;;;;;;;21.02;36.83;99564.66;5039978;28;20141;-62
2022/02/18 09:08:24;;;;;;;6.28;2.65;;;;;;;21.04;36.92;99559.94;5034901;28;20542;-62
2022/02/18 09:10:51;;;;;;;7.43;2.77;;;;;;;21.02;36.86;99551.41;5041465;28;20037;-62
2022/02/18 09:13:17;;;;;;;9.05;2.28;;;;;;;21.17;36.44;99541.25;5044553;28;20072;-62
2022/02/18 09:15:42;;;;;;;8.75;2.50;;;;;;;21.28;36.43;99531.84;5046460;28;20059;-62
2022/02/18 09:18:19;;;;;;;7.38;2.47;;;;;;;21.15;36.72;99527.44;5042636;28;20036;-62
2022/02/18 09:20:45;;;;;;;6.85;2.63;;;;;;;21.21;36.63;99517.84;5028736;28;20037;-62
2022/02/18 09:23:11;;;;;;;5.15;2.05;;;;;;;21.23;36.48;99494.59;5039751;28;20144;-64
2022/02/18 09:25:37;;;;;;;5.90;2.10;;;;;;;21.30;36.19;99479.47;5024946;28;20059;-62
2022/02/18 09:28:03;;;;;;;5.22;2.15;;;;;;;21.33;36.41;99484.31;5036240;28;20041;-62
2022/02/18 09:30:30;;;;;;;7.75;2.35;;;;;;;21.36;36.39;99478.56;5030941;28;20033;-62
2022/02/18 09:32:57;;;;;;;7.85;2.38;;;;;;;21.37;36.24;99493.44;5036422;28;20559;-62
2022/02/18 09:35:25;;;;;;;6.35;1.83;;;;;;;21.38;36.09;99479.19;5027360;28;20037;-62
2022/02/18 09:37:51;;;;;;;9.00;2.63;;;;;;;21.40;36.09;99445.34;5040211;28;20068;-62
2022/02/18 09:40:17;;;;;;;5.38;2.40;;;;;;;21.35;36.45;99435.38;5030351;28;20847;-62
2022/02/18 09:42:43;;;;;;;4.05;2.10;;;;;;;21.33;36.35;99432.16;5036371;28;20040;-62
2022/02/18 09:45:11;;;;;;;4.85;2.47;;;;;;;21.32;36.17;99411.19;5028411;28;20073;-62
2022/02/18 09:47:39;;;;;;;7.03;2.13;;;;;;;21.24;36.56;99392.97;5032514;28;20047;-62
2022/02/18 09:50:05;;;;;;;8.05;2.17;;;;;;;21.16;36.62;99386.13;5035558;28;20044;-62
2022/02/18 09:52:32;;;;;;;5.50;2.10;;;;;;;21.14;36.56;99377.59;5031880;28;20451;-62
2022/02/18 09:54:57;;;;;;;5.70;2.13;;;;;;;21.20;36.48;99371.44;5033189;28;20447;-62
2022/02/18 09:57:26;;;;;;;6.78;2.83;;;;;;;21.27;36.38;99371.34;5026166;28;20042;-62
2022/02/18 09:59:52;;;;;;;5.13;2.03;;;;;;;21.22;36.32;99361.41;5032762;28;20037;-62
2022/02/18 10:02:18;;;;;;;5.20;2.28;;;;;;;21.23;36.56;99360.38;5029571;28;20032;-63
2022/02/18 10:04:43;;;;;;;6.57;2.30;;;;;;;21.19;36.48;99324.81;5037214;28;20898;-62
2022/02/18 10:07:09;;;;;;;5.22;1.92;;;;;;;21.32;36.47;99316.69;5020114;28;20124;-64
2022/02/18 10:09:40;;;;;;;4.18;1.90;;;;;;;21.24;37.08;99309.09;4996771;28;20041;-65
2022/02/18 10:12:08;;;;;;;3.58;1.80;;;;;;;21.30;37.39;99300.22;5053597;28;20055;-67
2022/02/18 10:15:00;;;;;;;4.80;2.17;;;;;;;21.26;37.76;99303.56;5030627;28;20249;-65
2022/02/18 10:17:48;;;;;;;5.53;2.30;;;;;;;21.27;37.88;99284.78;5030017;28;20037;-63
2022/02/18 10:20:17;;;;;;;4.25;1.88;;;;;;;21.40;37.79;99271.38;5034829;28;20048;-62
2022/02/18 10:23:02;;;;;;;5.13;2.13;;;;;;;21.48;37.44;99256.16;5030428;28;20049;-62
2022/02/18 10:25:32;;;;;;;5.55;2.30;;;;;;;21.42;37.45;99236.72;5003618;28;20060;-65
2022/02/18 10:27:59;;;;;;;3.95;1.63;;;;;;;21.57;37.35;99249.53;5035885;28;20038;-62
2022/02/18 10:30:27;;;;;;;3.70;2.00;;;;;;;21.53;37.48;99241.19;5002907;28;20040;-62
2022/02/18 10:33:22;;;;;;;4.70;2.00;;;;;;;21.75;37.23;99228.22;5032277;28;20495;-66
2022/02/18 10:35:58;;;;;;;5.78;2.10;;;;;;;21.86;37.15;99227.38;4997603;28;20044;-64
2022/02/18 10:38:38;;;;;;;3.30;1.73;;;;;;;21.64;36.72;99216.56;5032804;28;20047;-64
2022/02/18 10:41:24;;;;;;;;;;;;;;;21.71;36.97;99211.94;4991951;28;20060;-67
2022/02/18 10:43:51;;;;;;;3.25;1.85;;;;;;;21.75;37.22;99211.53;5033593;28;19936;-65
2022/02/18 10:46:17;;;;;;;2.70;1.70;;;;;;;21.78;37.21;99181.91;5001083;28;20505;-65
2022/02/18 10:48:49;;;;;;;7.55;2.42;;;;;;;21.80;37.33;99185.94;5034408;28;20032;-63
2022/02/18 10:51:21;;;;;;;3.83;1.88;;;;;;;21.88;36.80;99182.09;5001248;28;20051;-67
2022/02/18 10:53:49;;;;;;;4.05;1.88;;;;;;;21.98;37.02;99174.38;5033968;28;20044;-65
2022/02/18 10:56:20;;;;;;;4.05;1.98;;;;;;;21.82;37.25;99151.25;5008697;28;20114;-69
2022/02/18 10:58:52;;;;;;;3.22;2.03;;;;;;;21.88;37.10;99161.72;5019823;28;20044;-64
2022/02/18 11:01:23;;;;;;;3.30;1.55;;;;;;;21.74;37.36;99143.69;5026916;28;20600;-68
2022/02/18 11:04:05;;;;;;;5.82;1.75;;;;;;;21.79;37.62;99141.13;4995368;28;20076;-66
2022/02/18 11:06:32;;;;;;;4.03;2.00;;;;;;;21.88;37.48;99139.72;5034396;28;20049;-69
2022/02/18 11:09:07;;;;;;;4.63;2.30;;;;;;;21.86;37.46;99110.00;5000992;28;20410;-66
2022/02/18 11:11:34;;;;;;;4.47;1.50;;;;;;;21.93;37.20;99102.72;5038065;28;20170;-65
2022/02/18 11:14:01;;;;;;;3.55;2.00;;;;;;;21.92;37.21;99101.13;4990077;28;20051;-63
2022/02/18 11:16:29;;;;;;;3.67;1.73;;;;;;;21.88;37.29;99081.41;5029718;28;20055;-65
2022/02/18 11:18:56;;;;;;;5.32;2.10;;;;;;;21.95;37.17;99098.00;5006637;28;20384;-61
2022/02/18 11:21:22;;;;;;;3.55;1.70;;;;;;;21.82;37.61;99061.97;5029596;28;20138;-61
2022/02/18 11:23:48;;;;;;;2.22;1.35;;;;;;;21.80;37.35;99058.75;5006256;28;20136;-62
2022/02/18 11:26:15;;;;;;;4.05;1.70;;;;;;;21.77;37.78;99059.22;5029244;28;20098;-62
2022/02/18 11:28:42;;;;;;;3.22;1.60;;;;;;;21.71;37.76;99053.00;5021324;28;20040;-63
2022/02/18 11:31:17;;;;;;;3.42;1.70;;;;;;;21.69;37.49;99038.38;5012877;28;20045;-62